sensor_id;sensor_type;location;lat;lon;timestamp;temperature;humidity
14053;DHT22;7101;51.600;7.310;2023-04-05T00:01:26;2.50;99.90
14053;DHT22;7101;51.600;7.310;2023-04-05T00:03:55;2.40;99.90
14053;DHT22;7101;51.600;7.310;2023-04-05T00:06:22;2.30;99.90
14053;DHT22;7101;51.600;7.310;2023-04-05T00:08:50;2.20;99.90
14053;DHT22;7101;51.600;7.310;2023-04-05T00:11:20;2.10;99.90
14053;DHT22;7101;51.600;7.310;2023-04-05T00:13:47;2.10;99.90
14053;DHT22;7101;51.600;7.310;2023-04-05T00:16:15;2.10;99.90
14053;DHT22;7101;51.600;7.310;2023-04-05T00:18:44;2.10;99.90
14053;DHT22;7101;51.600;7.310;2023-04-05T00:21:15;2.00;99.90
14053;DHT22;7101;51.600;7.310;2023-04-05T00:23:42;1.90;99.90
14053;DHT22;7101;51.600;7.310;2023-04-05T00:26:10;1.90;99.90
14053;DHT22;7101;51.600;7.310;2023-04-05T00:28:40;1.90;99.90
14053;DHT22;7101;51.600;7.310;2023-04-05T00:31:08;1.90;99.90
14053;DHT22;7101;51.600;7.310;2023-04-05T00:33:35;1.80;99.90
14053;DHT22;7101;51.600;7.310;2023-04-05T00:36:09;1.70;99.90
14053;DHT22;7101;51.600;7.310;2023-04-05T00:38:39;1.70;99.90
14053;DHT22;7101;51.600;7.310;2023-04-05T00:41:06;1.70;99.90
14053;DHT22;7101;51.600;7.310;2023-04-05T00:43:34;1.60;99.90
14053;DHT22;7101;51.600;7.310;2023-04-05T00:46:03;1.50;99.90
14053;DHT22;7101;51.600;7.310;2023-04-05T00:48:31;1.40;99.90
14053;DHT22;7101;51.600;7.310;2023-04-05T00:50:59;1.40;99.90
14053;DHT22;7101;51.600;7.310;2023-04-05T00:53:26;1.40;99.90
14053;DHT22;7101;51.600;7.310;2023-04-05T00:55:57;1.40;99.90
14053;DHT22;7101;51.600;7.310;2023-04-05T00:58:25;1.30;99.90
14053;DHT22;7101;51.600;7.310;2023-04-05T01:00:59;1.30;99.90
14053;DHT22;7101;51.600;7.310;2023-04-05T01:03:31;1.30;99.90
14053;DHT22;7101;51.600;7.310;2023-04-05T01:06:15;1.30;99.90
14053;DHT22;7101;51.600;7.310;2023-04-05T01:08:51;1.40;99.90
14053;DHT22;7101;51.600;7.310;2023-04-05T01:11:22;1.30;99.90
14053;DHT22;7101;51.600;7.310;2023-04-05T01:13:57;1.30;99.90
14053;DHT22;7101;51.600;7.310;2023-04-05T01:16:25;1.30;99.90
14053;DHT22;7101;51.600;7.310;2023-04-05T01:18:52;1.30;99.90
14053;DHT22;7101;51.600;7.310;2023-04-05T01:21:50;1.20;99.90
14053;DHT22;7101;51.600;7.310;2023-04-05T01:24:30;1.20;99.90
14053;DHT22;7101;51.600;7.310;2023-04-05T01:27:07;1.00;99.90
14053;DHT22;7101;51.600;7.310;2023-04-05T01:29:55;0.90;99.90
14053;DHT22;7101;51.600;7.310;2023-04-05T01:32:41;0.80;99.90
14053;DHT22;7101;51.600;7.310;2023-04-05T01:35:17;0.70;99.90
14053;DHT22;7101;51.600;7.310;2023-04-05T01:37:50;0.60;99.90
14053;DHT22;7101;51.600;7.310;2023-04-05T01:40:18;0.60;99.90
14053;DHT22;7101;51.600;7.310;2023-04-05T01:42:45;0.60;99.90
14053;DHT22;7101;51.600;7.310;2023-04-05T01:45:15;0.50;99.90
14053;DHT22;7101;51.600;7.310;2023-04-05T01:47:42;0.50;99.90
14053;DHT22;7101;51.600;7.310;2023-04-05T01:50:09;0.60;99.90
14053;DHT22;7101;51.600;7.310;2023-04-05T01:52:36;0.60;99.90
14053;DHT22;7101;51.600;7.310;2023-04-05T01:55:06;0.50;99.90
14053;DHT22;7101;51.600;7.310;2023-04-05T01:57:33;0.50;99.90
14053;DHT22;7101;51.600;7.310;2023-04-05T02:00:00;0.50;99.90
14053;DHT22;7101;51.600;7.310;2023-04-05T02:02:29;0.50;99.90
14053;DHT22;7101;51.600;7.310;2023-04-05T02:04:57;0.40;99.90
14053;DHT22;7101;51.600;7.310;2023-04-05T02:07:25;0.20;99.90
14053;DHT22;7101;51.600;7.310;2023-04-05T02:09:51;0.20;99.90
14053;DHT22;7101;51.600;7.310;2023-04-05T02:12:18;0.10;99.90
14053;DHT22;7101;51.600;7.310;2023-04-05T02:14:47;0.10;99.90
14053;DHT22;7101;51.600;7.310;2023-04-05T02:17:14;0.10;99.90
14053;DHT22;7101;51.600;7.310;2023-04-05T02:19:44;0.00;99.90
14053;DHT22;7101;51.600;7.310;2023-04-05T02:22:12;0.00;99.90
14053;DHT22;7101;51.600;7.310;2023-04-05T02:24:39;0.00;99.90
14053;DHT22;7101;51.600;7.310;2023-04-05T02:27:06;0.00;99.90
14053;DHT22;7101;51.600;7.310;2023-04-05T02:29:33;0.00;99.90
14053;DHT22;7101;51.600;7.310;2023-04-05T02:32:00;-0.10;99.90
14053;DHT22;7101;51.600;7.310;2023-04-05T02:34:28;-0.10;99.90
14053;DHT22;7101;51.600;7.310;2023-04-05T02:36:57;-0.20;99.90
14053;DHT22;7101;51.600;7.310;2023-04-05T02:39:24;-0.10;99.90
14053;DHT22;7101;51.600;7.310;2023-04-05T02:41:50;-0.10;99.90
14053;DHT22;7101;51.600;7.310;2023-04-05T02:44:17;-0.20;99.90
14053;DHT22;7101;51.600;7.310;2023-04-05T02:46:44;-0.20;99.90
14053;DHT22;7101;51.600;7.310;2023-04-05T02:49:12;-0.20;99.90
14053;DHT22;7101;51.600;7.310;2023-04-05T02:51:40;-0.30;99.90
14053;DHT22;7101;51.600;7.310;2023-04-05T02:54:08;-0.30;99.90
14053;DHT22;7101;51.600;7.310;2023-04-05T02:56:36;-0.30;99.90
14053;DHT22;7101;51.600;7.310;2023-04-05T02:59:03;-0.20;99.90
14053;DHT22;7101;51.600;7.310;2023-04-05T03:01:30;-0.20;99.90
14053;DHT22;7101;51.600;7.310;2023-04-05T03:04:01;-0.20;99.90
14053;DHT22;7101;51.600;7.310;2023-04-05T03:06:28;-0.20;99.90
14053;DHT22;7101;51.600;7.310;2023-04-05T03:08:56;-0.30;99.90
14053;DHT22;7101;51.600;7.310;2023-04-05T03:11:25;-0.30;99.90
14053;DHT22;7101;51.600;7.310;2023-04-05T03:13:52;-0.30;99.90
14053;DHT22;7101;51.600;7.310;2023-04-05T03:16:18;-0.30;99.90
14053;DHT22;7101;51.600;7.310;2023-04-05T03:18:45;-0.30;99.90
14053;DHT22;7101;51.600;7.310;2023-04-05T03:21:12;-0.30;99.90
14053;DHT22;7101;51.600;7.310;2023-04-05T03:23:42;-0.30;99.90
14053;DHT22;7101;51.600;7.310;2023-04-05T03:26:11;-0.40;99.90
14053;DHT22;7101;51.600;7.310;2023-04-05T03:28:41;-0.40;99.90
14053;DHT22;7101;51.600;7.310;2023-04-05T03:31:09;-0.40;99.90
14053;DHT22;7101;51.600;7.310;2023-04-05T03:33:36;-0.40;99.90
14053;DHT22;7101;51.600;7.310;2023-04-05T03:36:03;-0.50;99.90
14053;DHT22;7101;51.600;7.310;2023-04-05T03:38:31;-0.50;99.90
14053;DHT22;7101;51.600;7.310;2023-04-05T03:40:58;-0.60;99.90
14053;DHT22;7101;51.600;7.310;2023-04-05T03:43:26;-0.60;99.90
14053;DHT22;7101;51.600;7.310;2023-04-05T03:45:55;-0.60;99.90
14053;DHT22;7101;51.600;7.310;2023-04-05T03:48:22;-0.50;99.90
14053;DHT22;7101;51.600;7.310;2023-04-05T03:50:49;-0.60;99.90
14053;DHT22;7101;51.600;7.310;2023-04-05T03:53:16;-0.70;99.90
14053;DHT22;7101;51.600;7.310;2023-04-05T03:55:43;-0.70;99.90
14053;DHT22;7101;51.600;7.310;2023-04-05T03:58:15;-0.60;99.90
14053;DHT22;7101;51.600;7.310;2023-04-05T04:00:41;-0.60;99.90
14053;DHT22;7101;51.600;7.310;2023-04-05T04:03:10;-0.70;99.90
14053;DHT22;7101;51.600;7.310;2023-04-05T04:05:38;-0.70;99.90
14053;DHT22;7101;51.600;7.310;2023-04-05T04:08:05;-0.70;99.90
14053;DHT22;7101;51.600;7.310;2023-04-05T04:10:33;-0.80;99.90
14053;DHT22;7101;51.600;7.310;2023-04-05T04:13:01;-0.70;99.90
14053;DHT22;7101;51.600;7.310;2023-04-05T04:15:28;-0.60;99.90
14053;DHT22;7101;51.600;7.310;2023-04-05T04:17:57;-0.60;99.90
14053;DHT22;7101;51.600;7.310;2023-04-05T04:20:25;-0.70;99.90
14053;DHT22;7101;51.600;7.310;2023-04-05T04:22:52;-0.70;99.90
14053;DHT22;7101;51.600;7.310;2023-04-05T04:25:19;-0.80;99.90
14053;DHT22;7101;51.600;7.310;2023-04-05T04:27:47;-0.80;99.90
14053;DHT22;7101;51.600;7.310;2023-04-05T04:30:15;-0.80;99.90
14053;DHT22;7101;51.600;7.310;2023-04-05T04:32:42;-0.90;99.90
14053;DHT22;7101;51.600;7.310;2023-04-05T04:35:21;-0.90;99.90
14053;DHT22;7101;51.600;7.310;2023-04-05T04:37:55;-0.90;99.90
14053;DHT22;7101;51.600;7.310;2023-04-05T04:40:24;-1.00;99.90
14053;DHT22;7101;51.600;7.310;2023-04-05T04:42:51;-1.00;99.90
14053;DHT22;7101;51.600;7.310;2023-04-05T04:45:19;-0.90;99.90
14053;DHT22;7101;51.600;7.310;2023-04-05T04:47:47;-1.00;99.90
14053;DHT22;7101;51.600;7.310;2023-04-05T04:50:18;-0.90;99.90
14053;DHT22;7101;51.600;7.310;2023-04-05T04:52:46;-1.00;99.90
14053;DHT22;7101;51.600;7.310;2023-04-05T04:55:15;-1.00;99.90
14053;DHT22;7101;51.600;7.310;2023-04-05T04:57:42;-1.00;99.90
14053;DHT22;7101;51.600;7.310;2023-04-05T05:00:10;-0.90;99.90
14053;DHT22;7101;51.600;7.310;2023-04-05T05:02:39;-0.90;99.90
14053;DHT22;7101;51.600;7.310;2023-04-05T05:05:07;-0.90;99.90
14053;DHT22;7101;51.600;7.310;2023-04-05T05:07:38;-0.90;99.90
14053;DHT22;7101;51.600;7.310;2023-04-05T05:10:07;-0.90;99.90
14053;DHT22;7101;51.600;7.310;2023-04-05T05:12:36;-0.90;99.90
14053;DHT22;7101;51.600;7.310;2023-04-05T05:15:05;-0.90;99.90
14053;DHT22;7101;51.600;7.310;2023-04-05T05:17:32;-0.80;99.90
14053;DHT22;7101;51.600;7.310;2023-04-05T05:20:00;-0.80;99.90
14053;DHT22;7101;51.600;7.310;2023-04-05T05:22:31;-0.80;99.90
14053;DHT22;7101;51.600;7.310;2023-04-05T05:24:58;-0.80;99.90
14053;DHT22;7101;51.600;7.310;2023-04-05T05:27:25;-0.80;99.90
14053;DHT22;7101;51.600;7.310;2023-04-05T05:29:54;-0.70;99.90
14053;DHT22;7101;51.600;7.310;2023-04-05T05:32:22;-0.60;99.90
14053;DHT22;7101;51.600;7.310;2023-04-05T05:34:49;-0.40;99.90
14053;DHT22;7101;51.600;7.310;2023-04-05T05:37:16;-0.20;99.90
14053;DHT22;7101;51.600;7.310;2023-04-05T05:39:43;0.00;99.90
14053;DHT22;7101;51.600;7.310;2023-04-05T05:42:10;-0.10;99.90
14053;DHT22;7101;51.600;7.310;2023-04-05T05:44:37;0.10;99.90
14053;DHT22;7101;51.600;7.310;2023-04-05T05:47:06;0.60;99.90
14053;DHT22;7101;51.600;7.310;2023-04-05T05:49:34;1.20;99.90
14053;DHT22;7101;51.600;7.310;2023-04-05T05:52:02;2.20;99.90
14053;DHT22;7101;51.600;7.310;2023-04-05T05:54:30;3.40;99.90
14053;DHT22;7101;51.600;7.310;2023-04-05T05:56:58;4.80;99.90
14053;DHT22;7101;51.600;7.310;2023-04-05T05:59:25;6.00;99.90
14053;DHT22;7101;51.600;7.310;2023-04-05T06:01:54;7.10;99.90
14053;DHT22;7101;51.600;7.310;2023-04-05T06:04:23;7.50;99.90
14053;DHT22;7101;51.600;7.310;2023-04-05T06:06:50;7.80;99.90
14053;DHT22;7101;51.600;7.310;2023-04-05T06:09:19;7.80;99.90
14053;DHT22;7101;51.600;7.310;2023-04-05T06:11:50;8.20;99.90
14053;DHT22;7101;51.600;7.310;2023-04-05T06:14:17;8.80;99.90
14053;DHT22;7101;51.600;7.310;2023-04-05T06:16:47;9.50;99.90
14053;DHT22;7101;51.600;7.310;2023-04-05T06:19:24;9.80;99.90
14053;DHT22;7101;51.600;7.310;2023-04-05T06:21:53;10.60;99.90
14053;DHT22;7101;51.600;7.310;2023-04-05T06:24:20;10.90;99.90
14053;DHT22;7101;51.600;7.310;2023-04-05T06:26:48;11.10;99.50
14053;DHT22;7101;51.600;7.310;2023-04-05T06:29:16;11.00;97.30
14053;DHT22;7101;51.600;7.310;2023-04-05T06:31:43;10.90;96.20
14053;DHT22;7101;51.600;7.310;2023-04-05T06:34:12;11.50;94.90
14053;DHT22;7101;51.600;7.310;2023-04-05T06:36:42;11.90;95.00
14053;DHT22;7101;51.600;7.310;2023-04-05T06:39:09;11.90;93.60
14053;DHT22;7101;51.600;7.310;2023-04-05T06:41:36;12.00;92.70
14053;DHT22;7101;51.600;7.310;2023-04-05T06:44:05;11.30;92.30
14053;DHT22;7101;51.600;7.310;2023-04-05T06:46:31;11.10;92.90
14053;DHT22;7101;51.600;7.310;2023-04-05T06:48:59;11.10;92.90
14053;DHT22;7101;51.600;7.310;2023-04-05T06:51:26;10.90;92.90
14053;DHT22;7101;51.600;7.310;2023-04-05T06:53:55;10.90;94.50
14053;DHT22;7101;51.600;7.310;2023-04-05T06:56:23;11.00;94.30
14053;DHT22;7101;51.600;7.310;2023-04-05T06:58:51;11.00;93.20
14053;DHT22;7101;51.600;7.310;2023-04-05T07:01:18;10.70;93.00
14053;DHT22;7101;51.600;7.310;2023-04-05T07:03:46;11.00;93.20
14053;DHT22;7101;51.600;7.310;2023-04-05T07:06:13;10.90;94.00
14053;DHT22;7101;51.600;7.310;2023-04-05T07:08:40;10.80;94.70
14053;DHT22;7101;51.600;7.310;2023-04-05T07:11:08;10.40;95.30
14053;DHT22;7101;51.600;7.310;2023-04-05T07:13:35;10.50;95.70
14053;DHT22;7101;51.600;7.310;2023-04-05T07:16:03;11.00;95.10
14053;DHT22;7101;51.600;7.310;2023-04-05T07:18:30;11.10;95.10
14053;DHT22;7101;51.600;7.310;2023-04-05T07:20:58;11.40;94.40
14053;DHT22;7101;51.600;7.310;2023-04-05T07:23:28;11.70;93.20
14053;DHT22;7101;51.600;7.310;2023-04-05T07:26:00;11.20;93.40
14053;DHT22;7101;51.600;7.310;2023-04-05T07:28:31;11.70;93.00
14053;DHT22;7101;51.600;7.310;2023-04-05T07:31:00;11.80;94.10
14053;DHT22;7101;51.600;7.310;2023-04-05T07:33:33;12.00;94.50
14053;DHT22;7101;51.600;7.310;2023-04-05T07:36:01;11.80;94.20
14053;DHT22;7101;51.600;7.310;2023-04-05T07:38:29;12.40;93.90
14053;DHT22;7101;51.600;7.310;2023-04-05T07:40:56;13.10;91.30
14053;DHT22;7101;51.600;7.310;2023-04-05T07:43:24;13.20;92.30
14053;DHT22;7101;51.600;7.310;2023-04-05T07:46:00;12.90;90.90
14053;DHT22;7101;51.600;7.310;2023-04-05T07:48:27;12.00;92.60
14053;DHT22;7101;51.600;7.310;2023-04-05T07:50:54;11.90;92.80
14053;DHT22;7101;51.600;7.310;2023-04-05T07:53:21;12.20;94.00
14053;DHT22;7101;51.600;7.310;2023-04-05T07:55:49;12.50;92.40
14053;DHT22;7101;51.600;7.310;2023-04-05T07:58:16;12.80;92.70
14053;DHT22;7101;51.600;7.310;2023-04-05T08:00:42;13.40;88.10
14053;DHT22;7101;51.600;7.310;2023-04-05T08:03:11;13.40;88.40
14053;DHT22;7101;51.600;7.310;2023-04-05T08:05:39;13.20;90.00
14053;DHT22;7101;51.600;7.310;2023-04-05T08:08:05;12.90;89.20
14053;DHT22;7101;51.600;7.310;2023-04-05T08:10:37;13.20;89.70
14053;DHT22;7101;51.600;7.310;2023-04-05T08:13:04;13.00;91.20
14053;DHT22;7101;51.600;7.310;2023-04-05T08:15:32;13.00;88.10
14053;DHT22;7101;51.600;7.310;2023-04-05T08:18:00;12.90;88.70
14053;DHT22;7101;51.600;7.310;2023-04-05T08:20:29;12.90;87.20
14053;DHT22;7101;51.600;7.310;2023-04-05T08:22:57;13.00;86.60
14053;DHT22;7101;51.600;7.310;2023-04-05T08:25:23;13.40;85.30
14053;DHT22;7101;51.600;7.310;2023-04-05T08:27:54;12.80;81.20
14053;DHT22;7101;51.600;7.310;2023-04-05T08:30:23;12.50;85.70
14053;DHT22;7101;51.600;7.310;2023-04-05T08:32:54;12.70;84.00
14053;DHT22;7101;51.600;7.310;2023-04-05T08:35:21;12.50;82.90
14053;DHT22;7101;51.600;7.310;2023-04-05T08:37:50;12.30;86.80
14053;DHT22;7101;51.600;7.310;2023-04-05T08:40:17;12.00;88.80
14053;DHT22;7101;51.600;7.310;2023-04-05T08:42:55;11.20;86.30
14053;DHT22;7101;51.600;7.310;2023-04-05T08:45:24;11.30;89.80
14053;DHT22;7101;51.600;7.310;2023-04-05T08:47:51;10.90;90.30
14053;DHT22;7101;51.600;7.310;2023-04-05T08:50:19;10.50;90.30
14053;DHT22;7101;51.600;7.310;2023-04-05T08:52:53;10.10;88.60
14053;DHT22;7101;51.600;7.310;2023-04-05T08:55:22;10.20;90.20
14053;DHT22;7101;51.600;7.310;2023-04-05T08:57:53;9.90;90.70
14053;DHT22;7101;51.600;7.310;2023-04-05T09:00:26;10.00;92.40
14053;DHT22;7101;51.600;7.310;2023-04-05T09:02:57;9.70;90.80
14053;DHT22;7101;51.600;7.310;2023-04-05T09:05:27;9.90;92.00
14053;DHT22;7101;51.600;7.310;2023-04-05T09:07:59;9.70;91.60
14053;DHT22;7101;51.600;7.310;2023-04-05T09:10:28;9.60;91.30
14053;DHT22;7101;51.600;7.310;2023-04-05T09:12:55;9.90;91.00
14053;DHT22;7101;51.600;7.310;2023-04-05T09:15:38;9.80;91.90
14053;DHT22;7101;51.600;7.310;2023-04-05T09:18:06;10.00;91.80
14053;DHT22;7101;51.600;7.310;2023-04-05T09:20:33;10.40;90.80
14053;DHT22;7101;51.600;7.310;2023-04-05T09:23:00;10.40;87.60
14053;DHT22;7101;51.600;7.310;2023-04-05T09:25:36;10.50;91.00
14053;DHT22;7101;51.600;7.310;2023-04-05T09:28:05;10.50;90.70
14053;DHT22;7101;51.600;7.310;2023-04-05T09:30:32;10.50;89.80
14053;DHT22;7101;51.600;7.310;2023-04-05T09:33:06;10.20;84.50
14053;DHT22;7101;51.600;7.310;2023-04-05T09:35:36;10.30;90.30
14053;DHT22;7101;51.600;7.310;2023-04-05T09:38:04;10.70;86.90
14053;DHT22;7101;51.600;7.310;2023-04-05T09:40:41;10.40;84.90
14053;DHT22;7101;51.600;7.310;2023-04-05T09:43:09;10.40;83.00
14053;DHT22;7101;51.600;7.310;2023-04-05T09:45:41;10.20;82.80
14053;DHT22;7101;51.600;7.310;2023-04-05T09:48:12;10.00;82.90
14053;DHT22;7101;51.600;7.310;2023-04-05T09:50:40;10.00;83.30
14053;DHT22;7101;51.600;7.310;2023-04-05T09:53:09;10.00;85.20
14053;DHT22;7101;51.600;7.310;2023-04-05T09:55:41;10.30;84.00
14053;DHT22;7101;51.600;7.310;2023-04-05T09:58:11;9.80;82.50
14053;DHT22;7101;51.600;7.310;2023-04-05T10:00:38;9.50;82.80
14053;DHT22;7101;51.600;7.310;2023-04-05T10:03:24;9.50;88.20
14053;DHT22;7101;51.600;7.310;2023-04-05T10:05:57;9.90;91.20
14053;DHT22;7101;51.600;7.310;2023-04-05T10:08:24;10.00;80.30
14053;DHT22;7101;51.600;7.310;2023-04-05T10:10:52;9.70;85.60
14053;DHT22;7101;51.600;7.310;2023-04-05T10:13:21;9.60;86.00
14053;DHT22;7101;51.600;7.310;2023-04-05T10:15:49;9.50;77.20
14053;DHT22;7101;51.600;7.310;2023-04-05T10:18:23;9.40;81.80
14053;DHT22;7101;51.600;7.310;2023-04-05T10:20:57;9.30;82.00
14053;DHT22;7101;51.600;7.310;2023-04-05T10:23:30;9.30;79.10
14053;DHT22;7101;51.600;7.310;2023-04-05T10:26:03;9.40;79.40
14053;DHT22;7101;51.600;7.310;2023-04-05T10:28:35;9.40;79.00
14053;DHT22;7101;51.600;7.310;2023-04-05T10:31:10;9.40;78.30
14053;DHT22;7101;51.600;7.310;2023-04-05T10:33:43;9.20;79.10
14053;DHT22;7101;51.600;7.310;2023-04-05T10:36:17;9.10;78.60
14053;DHT22;7101;51.600;7.310;2023-04-05T10:38:56;9.30;80.00
14053;DHT22;7101;51.600;7.310;2023-04-05T10:41:28;9.50;79.60
14053;DHT22;7101;51.600;7.310;2023-04-05T10:43:56;9.70;78.90
14053;DHT22;7101;51.600;7.310;2023-04-05T10:46:25;9.80;82.00
14053;DHT22;7101;51.600;7.310;2023-04-05T10:49:01;9.70;83.10
14053;DHT22;7101;51.600;7.310;2023-04-05T10:51:32;9.70;78.30
14053;DHT22;7101;51.600;7.310;2023-04-05T10:54:00;9.80;82.00
14053;DHT22;7101;51.600;7.310;2023-04-05T10:56:27;10.10;89.40
14053;DHT22;7101;51.600;7.310;2023-04-05T10:58:55;10.30;82.50
14053;DHT22;7101;51.600;7.310;2023-04-05T11:01:23;10.30;89.00
14053;DHT22;7101;51.600;7.310;2023-04-05T11:03:51;10.60;82.80
14053;DHT22;7101;51.600;7.310;2023-04-05T11:06:30;10.60;79.70
14053;DHT22;7101;51.600;7.310;2023-04-05T11:08:58;10.10;79.40
14053;DHT22;7101;51.600;7.310;2023-04-05T11:11:27;10.20;82.30
14053;DHT22;7101;51.600;7.310;2023-04-05T11:14:16;10.00;77.80
14053;DHT22;7101;51.600;7.310;2023-04-05T11:16:46;10.10;81.50
14053;DHT22;7101;51.600;7.310;2023-04-05T11:19:16;10.20;83.60
14053;DHT22;7101;51.600;7.310;2023-04-05T11:21:44;10.40;80.90
14053;DHT22;7101;51.600;7.310;2023-04-05T11:24:12;10.40;80.00
14053;DHT22;7101;51.600;7.310;2023-04-05T11:26:54;10.50;79.70
14053;DHT22;7101;51.600;7.310;2023-04-05T11:29:47;10.50;82.10
14053;DHT22;7101;51.600;7.310;2023-04-05T11:32:16;10.50;82.90
14053;DHT22;7101;51.600;7.310;2023-04-05T11:34:43;10.50;80.50
14053;DHT22;7101;51.600;7.310;2023-04-05T11:37:14;10.40;86.70
14053;DHT22;7101;51.600;7.310;2023-04-05T11:39:44;10.30;78.30
14053;DHT22;7101;51.600;7.310;2023-04-05T11:42:11;10.30;79.10
14053;DHT22;7101;51.600;7.310;2023-04-05T11:44:43;10.30;83.30
14053;DHT22;7101;51.600;7.310;2023-04-05T11:47:11;10.20;79.20
14053;DHT22;7101;51.600;7.310;2023-04-05T11:49:38;10.20;82.30
14053;DHT22;7101;51.600;7.310;2023-04-05T11:52:15;10.10;78.00
14053;DHT22;7101;51.600;7.310;2023-04-05T11:54:42;10.20;80.90
14053;DHT22;7101;51.600;7.310;2023-04-05T11:57:18;10.40;78.70
14053;DHT22;7101;51.600;7.310;2023-04-05T11:59:49;10.30;74.80
14053;DHT22;7101;51.600;7.310;2023-04-05T12:02:16;10.10;75.20
14053;DHT22;7101;51.600;7.310;2023-04-05T12:04:43;10.20;78.70
14053;DHT22;7101;51.600;7.310;2023-04-05T12:07:15;10.30;71.40
14053;DHT22;7101;51.600;7.310;2023-04-05T12:10:04;10.20;71.50
14053;DHT22;7101;51.600;7.310;2023-04-05T12:12:35;10.20;76.50
14053;DHT22;7101;51.600;7.310;2023-04-05T12:15:05;10.30;71.40
14053;DHT22;7101;51.600;7.310;2023-04-05T12:17:44;10.50;73.40
14053;DHT22;7101;51.600;7.310;2023-04-05T12:20:13;10.60;74.50
14053;DHT22;7101;51.600;7.310;2023-04-05T12:22:44;10.60;71.40
14053;DHT22;7101;51.600;7.310;2023-04-05T12:25:13;10.60;71.50
14053;DHT22;7101;51.600;7.310;2023-04-05T12:27:40;10.60;71.30
14053;DHT22;7101;51.600;7.310;2023-04-05T12:30:13;10.60;70.10
14053;DHT22;7101;51.600;7.310;2023-04-05T12:32:45;10.60;69.50
14053;DHT22;7101;51.600;7.310;2023-04-05T12:35:15;10.30;68.80
14053;DHT22;7101;51.600;7.310;2023-04-05T12:37:44;10.60;70.70
14053;DHT22;7101;51.600;7.310;2023-04-05T12:40:11;10.70;73.60
14053;DHT22;7101;51.600;7.310;2023-04-05T12:42:40;10.60;69.40
14053;DHT22;7101;51.600;7.310;2023-04-05T12:45:11;10.70;69.40
14053;DHT22;7101;51.600;7.310;2023-04-05T12:47:48;10.70;73.30
14053;DHT22;7101;51.600;7.310;2023-04-05T12:50:26;10.90;73.30
14053;DHT22;7101;51.600;7.310;2023-04-05T12:53:05;11.00;72.10
14053;DHT22;7101;51.600;7.310;2023-04-05T12:55:42;10.80;67.70
14053;DHT22;7101;51.600;7.310;2023-04-05T12:58:11;10.70;69.00
14053;DHT22;7101;51.600;7.310;2023-04-05T13:00:43;10.60;65.90
14053;DHT22;7101;51.600;7.310;2023-04-05T13:03:15;10.60;72.70
14053;DHT22;7101;51.600;7.310;2023-04-05T13:05:42;10.70;69.70
14053;DHT22;7101;51.600;7.310;2023-04-05T13:08:10;10.60;74.60
14053;DHT22;7101;51.600;7.310;2023-04-05T13:10:47;10.80;74.20
14053;DHT22;7101;51.600;7.310;2023-04-05T13:13:14;10.80;69.70
14053;DHT22;7101;51.600;7.310;2023-04-05T13:15:42;10.60;69.00
14053;DHT22;7101;51.600;7.310;2023-04-05T13:18:09;10.70;72.00
14053;DHT22;7101;51.600;7.310;2023-04-05T13:20:39;10.70;72.40
14053;DHT22;7101;51.600;7.310;2023-04-05T13:23:06;10.80;75.10
14053;DHT22;7101;51.600;7.310;2023-04-05T13:25:36;10.90;70.70
14053;DHT22;7101;51.600;7.310;2023-04-05T13:28:03;10.90;72.90
14053;DHT22;7101;51.600;7.310;2023-04-05T13:30:31;10.90;74.30
14053;DHT22;7101;51.600;7.310;2023-04-05T13:32:57;10.60;76.00
14053;DHT22;7101;51.600;7.310;2023-04-05T13:35:24;10.50;73.00
14053;DHT22;7101;51.600;7.310;2023-04-05T13:37:51;10.60;78.40
14053;DHT22;7101;51.600;7.310;2023-04-05T13:40:18;10.50;76.00
14053;DHT22;7101;51.600;7.310;2023-04-05T13:42:55;10.50;75.60
14053;DHT22;7101;51.600;7.310;2023-04-05T13:45:23;10.60;75.30
14053;DHT22;7101;51.600;7.310;2023-04-05T13:47:51;10.60;75.90
14053;DHT22;7101;51.600;7.310;2023-04-05T13:50:18;10.60;72.00
14053;DHT22;7101;51.600;7.310;2023-04-05T13:52:49;10.40;74.50
14053;DHT22;7101;51.600;7.310;2023-04-05T13:55:17;10.60;79.30
14053;DHT22;7101;51.600;7.310;2023-04-05T13:57:45;10.70;73.70
14053;DHT22;7101;51.600;7.310;2023-04-05T14:00:14;10.60;74.80
14053;DHT22;7101;51.600;7.310;2023-04-05T14:02:41;10.80;76.70
14053;DHT22;7101;51.600;7.310;2023-04-05T14:05:08;10.80;69.80
14053;DHT22;7101;51.600;7.310;2023-04-05T14:07:35;10.60;71.90
14053;DHT22;7101;51.600;7.310;2023-04-05T14:10:03;10.70;72.30
14053;DHT22;7101;51.600;7.310;2023-04-05T14:12:33;10.80;70.90
14053;DHT22;7101;51.600;7.310;2023-04-05T14:15:00;10.70;67.80
14053;DHT22;7101;51.600;7.310;2023-04-05T14:17:28;10.60;67.80
14053;DHT22;7101;51.600;7.310;2023-04-05T14:19:55;10.80;75.00
14053;DHT22;7101;51.600;7.310;2023-04-05T14:22:22;11.00;74.00
14053;DHT22;7101;51.600;7.310;2023-04-05T14:24:48;11.10;75.40
14053;DHT22;7101;51.600;7.310;2023-04-05T14:27:15;11.10;68.50
14053;DHT22;7101;51.600;7.310;2023-04-05T14:29:43;11.00;69.20
14053;DHT22;7101;51.600;7.310;2023-04-05T14:32:10;11.00;74.20
14053;DHT22;7101;51.600;7.310;2023-04-05T14:34:39;11.10;75.60
14053;DHT22;7101;51.600;7.310;2023-04-05T14:37:06;11.10;70.50
14053;DHT22;7101;51.600;7.310;2023-04-05T14:39:34;11.00;68.40
14053;DHT22;7101;51.600;7.310;2023-04-05T14:42:02;11.00;72.20
14053;DHT22;7101;51.600;7.310;2023-04-05T14:44:35;11.00;70.70
14053;DHT22;7101;51.600;7.310;2023-04-05T14:47:02;11.00;74.80
14053;DHT22;7101;51.600;7.310;2023-04-05T14:49:35;10.90;74.60
14053;DHT22;7101;51.600;7.310;2023-04-05T14:52:03;10.80;71.40
14053;DHT22;7101;51.600;7.310;2023-04-05T14:54:32;10.90;74.10
14053;DHT22;7101;51.600;7.310;2023-04-05T14:56:59;10.70;70.70
14053;DHT22;7101;51.600;7.310;2023-04-05T14:59:36;10.70;70.10
14053;DHT22;7101;51.600;7.310;2023-04-05T15:02:09;10.80;68.70
14053;DHT22;7101;51.600;7.310;2023-04-05T15:04:42;10.80;70.50
14053;DHT22;7101;51.600;7.310;2023-04-05T15:07:23;10.90;68.30
14053;DHT22;7101;51.600;7.310;2023-04-05T15:09:51;10.90;66.70
14053;DHT22;7101;51.600;7.310;2023-04-05T15:12:29;11.00;75.60
14053;DHT22;7101;51.600;7.310;2023-04-05T15:15:06;10.70;70.10
14053;DHT22;7101;51.600;7.310;2023-04-05T15:17:40;10.70;68.80
14053;DHT22;7101;51.600;7.310;2023-04-05T15:20:08;10.90;72.60
14053;DHT22;7101;51.600;7.310;2023-04-05T15:22:48;10.90;70.50
14053;DHT22;7101;51.600;7.310;2023-04-05T15:25:23;11.00;70.80
14053;DHT22;7101;51.600;7.310;2023-04-05T15:27:50;11.00;71.00
14053;DHT22;7101;51.600;7.310;2023-04-05T15:30:24;11.00;69.90
14053;DHT22;7101;51.600;7.310;2023-04-05T15:32:56;11.10;70.60
14053;DHT22;7101;51.600;7.310;2023-04-05T15:35:22;11.00;69.10
14053;DHT22;7101;51.600;7.310;2023-04-05T15:37:54;11.10;71.20
14053;DHT22;7101;51.600;7.310;2023-04-05T15:40:23;11.10;71.80
14053;DHT22;7101;51.600;7.310;2023-04-05T15:42:53;11.10;68.90
14053;DHT22;7101;51.600;7.310;2023-04-05T15:45:27;11.10;67.30
14053;DHT22;7101;51.600;7.310;2023-04-05T15:48:07;11.10;69.90
14053;DHT22;7101;51.600;7.310;2023-04-05T15:50:36;10.90;67.20
14053;DHT22;7101;51.600;7.310;2023-04-05T15:53:11;10.80;67.60
14053;DHT22;7101;51.600;7.310;2023-04-05T15:55:39;10.70;71.00
14053;DHT22;7101;51.600;7.310;2023-04-05T15:58:07;10.70;69.90
14053;DHT22;7101;51.600;7.310;2023-04-05T16:00:39;10.70;73.60
14053;DHT22;7101;51.600;7.310;2023-04-05T16:03:11;10.50;71.20
14053;DHT22;7101;51.600;7.310;2023-04-05T16:05:38;10.30;72.50